Time;durP1;ratioP1;P1;durP2;ratioP2;P2;SDS_P1;SDS_P2;PMS_P1;PMS_P2;Temp;Humidity;BMP_temperature;BMP_pressure;BME280_temperature;BME280_humidity;BME280_pressure;Samples;Min_cycle;Max_cycle;Signal;HPM_P1;HPM_P2
2023/02/12 00:00:07;;;;;;;65.43;23.60;;;;;;;;;;5031724;28;20057;-78
2023/02/12 00:02:34;;;;;;;64.70;23.52;;;;;;;;;;5029658;28;20049;-77
2023/02/12 00:05:00;;;;;;;66.70;22.77;;;;;;;;;;5031686;28;20049;-78
2023/02/12 00:07:29;;;;;;;72.45;24.92;;;;;;;;;;5030671;28;20064;-78
2023/02/12 00:09:55;;;;;;;70.35;24.00;;;;;;;;;;5030473;28;20062;-77
2023/02/12 00:12:21;;;;;;;77.45;26.30;;;;;;;;;;5030121;28;20068;-77
2023/02/12 00:14:48;;;;;;;77.22;24.83;;;;;;;;;;5031107;28;20128;-78
2023/02/12 00:17:14;;;;;;;71.43;25.95;;;;;;;;;;5027371;28;20060;-77
2023/02/12 00:19:40;;;;;;;73.18;25.63;;;;;;;;;;5011016;28;20057;-78
2023/02/12 00:22:07;;;;;;;74.15;25.83;;;;;;;;;;5012080;28;20060;-78
2023/02/12 00:24:33;;;;;;;85.93;26.45;;;;;;;;;;5030036;28;20052;-78
2023/02/12 00:26:59;;;;;;;75.72;25.58;;;;;;;;;;5029282;28;20057;-77
2023/02/12 00:29:26;;;;;;;81.03;26.63;;;;;;;;;;5029836;28;20084;-79
2023/02/12 00:31:52;;;;;;;80.32;26.30;;;;;;;;;;5030446;28;20117;-78
2023/02/12 00:34:19;;;;;;;87.18;27.35;;;;;;;;;;5028010;28;20109;-78
2023/02/12 00:36:45;;;;;;;78.78;26.55;;;;;;;;;;5031876;28;20132;-77
2023/02/12 00:39:11;;;;;;;84.97;26.80;;;;;;;;;;5032604;28;20051;-78
2023/02/12 00:41:38;;;;;;;82.20;25.73;;;;;;;;;;5033206;28;20361;-78
2023/02/12 00:44:04;;;;;;;81.57;27.40;;;;;;;;;;5032052;28;20167;-78
2023/02/12 00:46:31;;;;;;;85.07;27.35;;;;;;;;;;5032685;28;20140;-78
2023/02/12 00:48:57;;;;;;;89.05;26.90;;;;;;;;;;5029748;28;20059;-78
2023/02/12 00:51:23;;;;;;;85.07;27.15;;;;;;;;;;5034818;28;20081;-79
2023/02/12 00:53:50;;;;;;;90.75;27.67;;;;;;;;;;5035816;28;20572;-78
2023/02/12 00:56:16;;;;;;;86.82;27.65;;;;;;;;;;5035712;28;20137;-78
2023/02/12 00:58:43;;;;;;;93.03;29.38;;;;;;;;;;5033643;28;20038;-77
2023/02/12 01:01:09;;;;;;;88.32;27.70;;;;;;;;;;5032674;28;20140;-78
2023/02/12 01:03:37;;;;;;;85.43;27.40;;;;;;;;;;5030890;28;20096;-77
2023/02/12 01:06:04;;;;;;;84.03;26.75;;;;;;;;;;5031491;28;20128;-76
2023/02/12 01:08:31;;;;;;;88.68;27.70;;;;;;;;;;5029206;28;20108;-79
2023/02/12 01:10:58;;;;;;;85.22;26.30;;;;;;;;;;5030325;28;20045;-77
2023/02/12 01:13:25;;;;;;;94.97;28.20;;;;;;;;;;5029473;28;20053;-77
2023/02/12 01:16:02;;;;;;;85.50;27.20;;;;;;;;;;5030760;28;20343;-77
2023/02/12 01:18:29;;;;;;;82.82;26.63;;;;;;;;;;5028447;28;20522;-77
2023/02/12 01:20:57;;;;;;;89.25;27.35;;;;;;;;;;5030122;28;20067;-78
2023/02/12 01:23:24;;;;;;;81.35;26.90;;;;;;;;;;5031632;28;20049;-78
2023/02/12 01:25:50;;;;;;;86.32;26.42;;;;;;;;;;5032433;28;20053;-78
2023/02/12 01:28:16;;;;;;;87.10;27.00;;;;;;;;;;5030904;28;20624;-78
2023/02/12 01:30:43;;;;;;;86.35;27.45;;;;;;;;;;5032258;28;20052;-77
2023/02/12 01:33:09;;;;;;;86.78;26.88;;;;;;;;;;5031528;28;20041;-78
2023/02/12 01:35:36;;;;;;;88.97;27.23;;;;;;;;;;5032974;28;20060;-78
2023/02/12 01:38:03;;;;;;;87.05;27.05;;;;;;;;;;5030939;28;20447;-77
2023/02/12 01:40:29;;;;;;;95.60;28.58;;;;;;;;;;5031655;28;20057;-78
2023/02/12 01:42:58;;;;;;;93.18;28.55;;;;;;;;;;5032256;28;20068;-78
2023/02/12 01:45:28;;;;;;;97.53;29.17;;;;;;;;;;5033832;28;20050;-79
2023/02/12 01:47:58;;;;;;;90.53;29.27;;;;;;;;;;5029279;28;20443;-77
2023/02/12 01:50:25;;;;;;;99.60;30.40;;;;;;;;;;5013389;28;20141;-78
2023/02/12 01:52:53;;;;;;;89.60;27.77;;;;;;;;;;5013023;28;20081;-78
2023/02/12 01:55:19;;;;;;;92.00;27.88;;;;;;;;;;5013923;28;20137;-77
2023/02/12 01:57:47;;;;;;;97.90;28.70;;;;;;;;;;5010983;28;20052;-76
2023/02/12 02:00:15;;;;;;;93.93;28.75;;;;;;;;;;5010350;28;20049;-77
2023/02/12 02:02:43;;;;;;;89.18;28.60;;;;;;;;;;5008696;28;20053;-77
2023/02/12 02:05:11;;;;;;;100.47;29.33;;;;;;;;;;5009119;28;20058;-77
2023/02/12 02:07:39;;;;;;;91.93;27.80;;;;;;;;;;5008259;28;20061;-77
2023/02/12 02:10:05;;;;;;;92.35;27.83;;;;;;;;;;5008565;28;20068;-76
2023/02/12 02:15:17;;;;;;;99.97;29.60;;;;;;;;;;5026100;28;20416;-76
2023/02/12 02:18:02;;;;;;;95.22;29.38;;;;;;;;;;5027478;28;20307;-76
2023/02/12 02:20:35;;;;;;;91.68;28.15;;;;;;;;;;5029317;28;20045;-77
2023/02/12 02:23:01;;;;;;;95.40;28.98;;;;;;;;;;5027771;28;20192;-75
2023/02/12 02:25:46;;;;;;;92.50;28.17;;;;;;;;;;5029201;28;20049;-76
2023/02/12 02:28:32;;;;;;;99.82;28.73;;;;;;;;;;5027710;28;20057;-77
2023/02/12 02:31:04;;;;;;;94.80;29.45;;;;;;;;;;5028621;28;20419;-77
2023/02/12 02:33:37;;;;;;;94.18;28.35;;;;;;;;;;5027303;28;20049;-77
2023/02/12 02:36:12;;;;;;;96.72;28.58;;;;;;;;;;5029119;28;20107;-77
2023/02/12 02:38:49;;;;;;;87.90;27.98;;;;;;;;;;5027783;28;20061;-77
2023/02/12 02:41:34;;;;;;;97.32;29.65;;;;;;;;;;5028073;28;20064;-77
2023/02/12 02:44:04;;;;;;;90.43;28.05;;;;;;;;;;5027350;28;20049;-77
2023/02/12 02:46:42;;;;;;;104.50;29.23;;;;;;;;;;5027871;28;20060;-77
2023/02/12 02:49:12;;;;;;;88.88;28.55;;;;;;;;;;5028427;28;20053;-77
2023/02/12 02:51:40;;;;;;;85.25;28.17;;;;;;;;;;5028473;28;20049;-77
2023/02/12 02:54:09;;;;;;;100.70;29.60;;;;;;;;;;5027927;28;20615;-77
2023/02/12 02:56:36;;;;;;;88.30;27.75;;;;;;;;;;5028109;28;20058;-77
2023/02/12 02:59:06;;;;;;;96.57;28.02;;;;;;;;;;5028480;28;20458;-76
2023/02/12 03:01:35;;;;;;;97.13;28.52;;;;;;;;;;5028249;28;20136;-77
2023/02/12 03:04:09;;;;;;;96.28;29.95;;;;;;;;;;5028160;28;20076;-77
2023/02/12 03:06:45;;;;;;;92.00;29.70;;;;;;;;;;5027979;28;20045;-77
2023/02/12 03:09:32;;;;;;;99.55;29.38;;;;;;;;;;5028521;28;20128;-77
2023/02/12 03:12:02;;;;;;;92.22;28.27;;;;;;;;;;5027630;28;20041;-77
2023/02/12 03:14:30;;;;;;;104.70;30.13;;;;;;;;;;5028029;28;20535;-78
2023/02/12 03:16:56;;;;;;;100.53;30.23;;;;;;;;;;5027486;28;20264;-78
2023/02/12 03:19:24;;;;;;;90.32;29.08;;;;;;;;;;5026919;28;20057;-78
2023/02/12 03:21:56;;;;;;;108.72;32.05;;;;;;;;;;5031081;28;20045;-77
2023/02/12 03:24:36;;;;;;;81.03;23.58;;;;;;;;;;5012818;28;20057;-77
2023/02/12 03:27:11;;;;;;;100.65;29.60;;;;;;;;;;5030199;28;20175;-77
2023/02/12 03:29:38;;;;;;;93.97;29.40;;;;;;;;;;5013971;28;20163;-77
2023/02/12 03:32:13;;;;;;;101.80;31.50;;;;;;;;;;5031334;28;20042;-77
2023/02/12 03:34:43;;;;;;;104.72;30.52;;;;;;;;;;5031043;28;20076;-76
2023/02/12 03:37:29;;;;;;;109.13;30.45;;;;;;;;;;5031743;28;20050;-77
2023/02/12 03:40:02;;;;;;;116.68;32.38;;;;;;;;;;5031620;28;20049;-77
2023/02/12 03:42:34;;;;;;;106.80;29.85;;;;;;;;;;5031493;28;20137;-76
2023/02/12 03:45:03;;;;;;;105.32;30.67;;;;;;;;;;5031749;28;20056;-76
2023/02/12 03:47:30;;;;;;;103.18;31.15;;;;;;;;;;5029945;28;20072;-76
2023/02/12 03:49:59;;;;;;;107.93;30.35;;;;;;;;;;5031073;28;20052;-77
2023/02/12 03:52:27;;;;;;;108.82;31.65;;;;;;;;;;5030639;28;20049;-76
2023/02/12 03:54:53;;;;;;;113.65;31.60;;;;;;;;;;5030384;28;20132;-76
2023/02/12 03:57:21;;;;;;;109.75;29.50;;;;;;;;;;5012486;28;20136;-79
2023/02/12 03:59:48;;;;;;;107.55;29.88;;;;;;;;;;5031077;28;20042;-77
2023/02/12 04:02:15;;;;;;;105.05;29.00;;;;;;;;;;5013427;28;20049;-77
2023/02/12 04:04:42;;;;;;;104.28;29.83;;;;;;;;;;5030346;28;20139;-77
2023/02/12 04:07:09;;;;;;;106.13;31.13;;;;;;;;;;5029764;28;20053;-77
2023/02/12 04:09:37;;;;;;;103.30;29.48;;;;;;;;;;5014168;28;20064;-77
2023/02/12 04:12:09;;;;;;;107.50;27.73;;;;;;;;;;5031313;28;20045;-77
2023/02/12 04:14:47;;;;;;;104.13;29.23;;;;;;;;;;5031688;28;20042;-77
2023/02/12 04:17:14;;;;;;;96.60;29.70;;;;;;;;;;5030784;28;20049;-77
2023/02/12 04:19:50;;;;;;;94.70;29.02;;;;;;;;;;5029150;28;20050;-77
2023/02/12 04:22:35;;;;;;;101.30;29.17;;;;;;;;;;5030302;28;20126;-77
2023/02/12 04:25:04;;;;;;;93.05;28.38;;;;;;;;;;5030977;28;20122;-77
2023/02/12 04:27:36;;;;;;;95.10;27.45;;;;;;;;;;5030491;28;20490;-77
2023/02/12 04:30:03;;;;;;;101.00;28.00;;;;;;;;;;5031016;28;20099;-77
2023/02/12 04:32:32;;;;;;;102.63;29.30;;;;;;;;;;5029290;28;20046;-78
2023/02/12 04:34:58;;;;;;;113.47;30.02;;;;;;;;;;5029604;28;20479;-77
2023/02/12 04:37:27;;;;;;;106.90;27.88;;;;;;;;;;5030173;28;20059;-77
2023/02/12 04:39:55;;;;;;;106.45;29.55;;;;;;;;;;5030156;28;20045;-77
2023/02/12 04:42:21;;;;;;;113.30;29.58;;;;;;;;;;5030676;28;20450;-77
2023/02/12 04:44:48;;;;;;;122.47;30.65;;;;;;;;;;5031379;28;20132;-76
2023/02/12 04:47:17;;;;;;;99.22;28.75;;;;;;;;;;5029227;28;20049;-76
2023/02/12 04:49:46;;;;;;;111.60;30.27;;;;;;;;;;5029732;28;20053;-76
2023/02/12 04:52:13;;;;;;;116.28;30.23;;;;;;;;;;5030852;28;20046;-76
2023/02/12 04:54:39;;;;;;;107.00;28.65;;;;;;;;;;5031299;28;20060;-76
2023/02/12 04:57:06;;;;;;;99.35;27.90;;;;;;;;;;5032123;28;20502;-76
2023/02/12 04:59:32;;;;;;;102.38;28.58;;;;;;;;;;5031043;28;20081;-77
2023/02/12 05:01:59;;;;;;;98.40;27.27;;;;;;;;;;5029743;28;20379;-77
2023/02/12 05:04:25;;;;;;;99.45;27.58;;;;;;;;;;5029740;28;20409;-77
2023/02/12 05:06:52;;;;;;;106.35;28.77;;;;;;;;;;5029220;28;20444;-77
2023/02/12 05:09:19;;;;;;;93.15;26.42;;;;;;;;;;5028233;28;20049;-77
2023/02/12 05:11:46;;;;;;;97.18;27.67;;;;;;;;;;5029123;28;20053;-77
2023/02/12 05:14:12;;;;;;;98.80;27.02;;;;;;;;;;5029271;28;20516;-78
2023/02/12 05:16:39;;;;;;;106.88;27.70;;;;;;;;;;5030625;28;20045;-77
2023/02/12 05:19:08;;;;;;;103.40;27.80;;;;;;;;;;5028260;28;20045;-77
2023/02/12 05:21:34;;;;;;;120.82;28.63;;;;;;;;;;5029166;28;20060;-77
2023/02/12 05:24:02;;;;;;;117.85;27.83;;;;;;;;;;5029383;28;20167;-77
2023/02/12 05:26:28;;;;;;;114.05;29.00;;;;;;;;;;5029169;28;20089;-77
2023/02/12 05:28:55;;;;;;;102.10;27.30;;;;;;;;;;5029352;28;20141;-77
2023/02/12 05:31:22;;;;;;;103.80;27.85;;;;;;;;;;5030004;28;20107;-77
2023/02/12 05:33:49;;;;;;;108.72;29.42;;;;;;;;;;5027237;28;20059;-77
2023/02/12 05:36:18;;;;;;;108.90;29.05;;;;;;;;;;5029988;28;20128;-77
2023/02/12 05:38:51;;;;;;;115.75;29.25;;;;;;;;;;5027799;28;20129;-77
2023/02/12 05:41:20;;;;;;;104.47;27.70;;;;;;;;;;5029561;28;20156;-76
2023/02/12 05:43:49;;;;;;;104.40;27.98;;;;;;;;;;5029027;28;20045;-76
2023/02/12 05:46:16;;;;;;;99.88;27.55;;;;;;;;;;5029054;28;20057;-77
2023/02/12 05:48:43;;;;;;;97.78;27.73;;;;;;;;;;5029223;28;20111;-79
2023/02/12 05:51:10;;;;;;;89.38;25.55;;;;;;;;;;5032166;28;20114;-78
2023/02/12 05:53:38;;;;;;;101.53;26.25;;;;;;;;;;5030139;28;20049;-79
2023/02/12 05:56:15;;;;;;;92.43;26.10;;;;;;;;;;5029619;28;20189;-77
2023/02/12 05:58:42;;;;;;;86.95;25.73;;;;;;;;;;5029036;28;20073;-76
2023/02/12 06:01:13;;;;;;;94.38;25.80;;;;;;;;;;5029541;28;20050;-77
2023/02/12 06:03:40;;;;;;;97.47;26.05;;;;;;;;;;5028404;28;20053;-77
2023/02/12 06:06:06;;;;;;;97.25;27.00;;;;;;;;;;5030056;28;20057;-77
2023/02/12 06:08:33;;;;;;;99.57;25.70;;;;;;;;;;5026199;28;20438;-77
2023/02/12 06:11:01;;;;;;;110.22;26.63;;;;;;;;;;5031736;28;20049;-78
2023/02/12 06:13:28;;;;;;;99.30;26.90;;;;;;;;;;5013136;28;20055;-77
2023/02/12 06:15:54;;;;;;;121.75;27.38;;;;;;;;;;5032121;28;20080;-77
2023/02/12 06:18:21;;;;;;;103.45;26.80;;;;;;;;;;5029042;28;20056;-77
2023/02/12 06:20:48;;;;;;;123.13;26.80;;;;;;;;;;5033618;28;20087;-77
2023/02/12 06:23:15;;;;;;;108.93;25.90;;;;;;;;;;5033640;28;20053;-76
2023/02/12 06:25:42;;;;;;;116.43;24.70;;;;;;;;;;5034640;28;20049;-77
2023/02/12 06:28:08;;;;;;;101.20;26.52;;;;;;;;;;5032865;28;20147;-77
2023/02/12 06:30:35;;;;;;;102.03;26.60;;;;;;;;;;5034500;28;20136;-77
2023/02/12 06:33:01;;;;;;;99.57;26.30;;;;;;;;;;5031082;28;20306;-77
2023/02/12 06:35:27;;;;;;;92.25;25.35;;;;;;;;;;5040837;28;20045;-78
2023/02/12 06:37:54;;;;;;;85.32;24.15;;;;;;;;;;5032340;28;20060;-78
2023/02/12 06:40:20;;;;;;;99.72;24.98;;;;;;;;;;5032210;28;20081;-77
2023/02/12 06:42:47;;;;;;;93.25;24.35;;;;;;;;;;5032476;28;20049;-78
2023/02/12 06:45:15;;;;;;;116.43;25.80;;;;;;;;;;5030725;28;20130;-77
2023/02/12 06:47:42;;;;;;;114.15;25.33;;;;;;;;;;5029159;28;20137;-76
2023/02/12 06:50:08;;;;;;;114.70;25.50;;;;;;;;;;5013506;28;20050;-77
2023/02/12 06:52:35;;;;;;;115.80;26.95;;;;;;;;;;5031637;28;20493;-76
2023/02/12 06:55:01;;;;;;;142.18;25.55;;;;;;;;;;5016405;28;20097;-77
2023/02/12 06:57:28;;;;;;;103.00;24.40;;;;;;;;;;5031615;28;20140;-76
2023/02/12 06:59:55;;;;;;;124.80;25.05;;;;;;;;;;5031609;28;20196;-76
2023/02/12 07:02:24;;;;;;;119.65;24.40;;;;;;;;;;5030715;28;20137;-77
2023/02/12 07:04:50;;;;;;;120.97;24.50;;;;;;;;;;5029664;28;20041;-77
2023/02/12 07:07:17;;;;;;;133.07;25.33;;;;;;;;;;5030128;28;20049;-78
2023/02/12 07:09:43;;;;;;;122.90;24.42;;;;;;;;;;5013565;28;20060;-78
2023/02/12 07:12:14;;;;;;;127.43;23.15;;;;;;;;;;5030175;28;20452;-78
2023/02/12 07:14:41;;;;;;;113.72;25.45;;;;;;;;;;5030591;28;20046;-79
2023/02/12 07:17:08;;;;;;;99.53;24.13;;;;;;;;;;5018977;28;20057;-79
2023/02/12 07:19:35;;;;;;;112.03;24.15;;;;;;;;;;5031953;28;20088;-78
2023/02/12 07:22:01;;;;;;;153.38;23.60;;;;;;;;;;5034600;28;20411;-78
2023/02/12 07:24:28;;;;;;;204.07;25.08;;;;;;;;;;5032231;28;20431;-78
2023/02/12 07:26:54;;;;;;;138.27;24.48;;;;;;;;;;5030005;28;20310;-77
2023/02/12 07:29:20;;;;;;;132.25;23.90;;;;;;;;;;5031565;28;20049;-78
2023/02/12 07:31:47;;;;;;;130.80;23.63;;;;;;;;;;5031211;28;20057;-78
2023/02/12 07:34:13;;;;;;;182.73;23.25;;;;;;;;;;5028293;28;20041;-78
2023/02/12 07:36:41;;;;;;;108.13;22.75;;;;;;;;;;5023001;28;20049;-79
2023/02/12 07:39:09;;;;;;;116.13;23.17;;;;;;;;;;5027819;28;20734;-77
2023/02/12 07:41:35;;;;;;;78.88;22.95;;;;;;;;;;5029500;28;20065;-77
2023/02/12 07:44:05;;;;;;;111.65;23.30;;;;;;;;;;5015386;28;20517;-78
2023/02/12 07:46:36;;;;;;;118.53;23.73;;;;;;;;;;5030178;28;20136;-76
2023/02/12 07:49:06;;;;;;;118.05;21.85;;;;;;;;;;5029811;28;20493;-78
2023/02/12 07:51:33;;;;;;;100.63;21.75;;;;;;;;;;5028720;28;20045;-77
2023/02/12 07:54:00;;;;;;;74.57;21.20;;;;;;;;;;5031260;28;20057;-78
2023/02/12 07:56:29;;;;;;;75.00;21.33;;;;;;;;;;5045177;28;20052;-77
2023/02/12 07:58:56;;;;;;;81.43;24.08;;;;;;;;;;5025258;28;20093;-79
2023/02/12 08:01:25;;;;;;;74.43;22.05;;;;;;;;;;5025224;28;20057;-79
2023/02/12 08:03:52;;;;;;;66.85;21.15;;;;;;;;;;5023395;28;20053;-77
2023/02/12 08:06:20;;;;;;;63.58;20.58;;;;;;;;;;5026100;28;20077;-78
2023/02/12 08:08:47;;;;;;;64.32;20.48;;;;;;;;;;5011092;28;20433;-79
2023/02/12 08:11:14;;;;;;;69.82;22.25;;;;;;;;;;5015240;28;20119;-78
2023/02/12 08:13:40;;;;;;;64.75;20.80;;;;;;;;;;5014860;28;20049;-77
2023/02/12 08:16:08;;;;;;;51.65;18.27;;;;;;;;;;5033728;28;20060;-78
2023/02/12 08:18:35;;;;;;;54.85;18.58;;;;;;;;;;5039336;28;20600;-78
2023/02/12 08:21:03;;;;;;;57.10;18.70;;;;;;;;;;5037832;28;20053;-79
2023/02/12 08:23:32;;;;;;;54.90;18.50;;;;;;;;;;5031033;28;20053;-76
2023/02/12 08:26:05;;;;;;;52.22;17.85;;;;;;;;;;5030999;28;20080;-78
2023/02/12 08:28:32;;;;;;;56.05;17.67;;;;;;;;;;5029766;28;20053;-78
2023/02/12 08:30:59;;;;;;;49.78;16.40;;;;;;;;;;5035502;28;20057;-79
2023/02/12 08:33:25;;;;;;;56.42;17.30;;;;;;;;;;5028495;28;20046;-78
2023/02/12 08:35:59;;;;;;;60.80;18.52;;;;;;;;;;5045613;28;20049;-78
2023/02/12 08:38:26;;;;;;;57.83;18.43;;;;;;;;;;5039910;28;20045;-77
2023/02/12 08:40:53;;;;;;;64.20;19.35;;;;;;;;;;5025916;28;20088;-80
2023/02/12 08:43:19;;;;;;;68.50;19.15;;;;;;;;;;5028153;28;20056;-78
2023/02/12 08:45:45;;;;;;;73.78;20.15;;;;;;;;;;5030717;28;20455;-79
2023/02/12 08:48:12;;;;;;;56.53;18.30;;;;;;;;;;5029155;28;20058;-78
2023/02/12 08:50:38;;;;;;;60.55;18.92;;;;;;;;;;5020047;28;20063;-79
2023/02/12 08:53:06;;;;;;;87.28;19.63;;;;;;;;;;5011635;28;20132;-79
2023/02/12 08:55:33;;;;;;;80.50;19.83;;;;;;;;;;5026261;28;20057;-78
2023/02/12 08:58:00;;;;;;;66.35;20.75;;;;;;;;;;5027999;28;20056;-79
2023/02/12 09:00:26;;;;;;;74.25;20.75;;;;;;;;;;5028709;28;20049;-78
2023/02/12 09:02:52;;;;;;;97.07;22.23;;;;;;;;;;5028401;28;20052;-79
2023/02/12 09:05:19;;;;;;;117.22;22.05;;;;;;;;;;5028156;28;20059;-80
2023/02/12 09:07:45;;;;;;;129.40;22.48;;;;;;;;;;5026034;28;20353;-80
2023/02/12 09:10:12;;;;;;;149.68;22.95;;;;;;;;;;5023876;28;20064;-81
2023/02/12 09:12:39;;;;;;;161.05;23.52;;;;;;;;;;5007393;28;20501;-80
2023/02/12 09:15:05;;;;;;;106.95;22.17;;;;;;;;;;5030202;28;20079;-79
2023/02/12 09:17:32;;;;;;;151.20;21.48;;;;;;;;;;5026541;28;20264;-78
2023/02/12 09:20:00;;;;;;;124.07;21.13;;;;;;;;;;5011896;28;20049;-79
2023/02/12 09:22:26;;;;;;;140.32;21.35;;;;;;;;;;5029532;28;20088;-79
2023/02/12 09:24:53;;;;;;;133.13;21.27;;;;;;;;;;5030648;28;20049;-79
2023/02/12 09:27:19;;;;;;;150.30;21.38;;;;;;;;;;5029405;28;20049;-79
2023/02/12 09:29:45;;;;;;;157.43;20.77;;;;;;;;;;5032503;28;20521;-79
2023/02/12 09:32:12;;;;;;;121.82;19.95;;;;;;;;;;5032188;28;20049;-79
2023/02/12 09:34:38;;;;;;;149.63;20.70;;;;;;;;;;5032190;28;20053;-79
2023/02/12 09:37:04;;;;;;;147.95;21.95;;;;;;;;;;5013085;28;20042;-79
2023/02/12 09:39:31;;;;;;;133.50;21.00;;;;;;;;;;5014319;28;20045;-79
2023/02/12 09:41:57;;;;;;;76.40;20.20;;;;;;;;;;5032006;28;20356;-78
2023/02/12 09:44:44;;;;;;;133.27;20.13;;;;;;;;;;5031338;28;20049;-79
2023/02/12 09:47:29;;;;;;;168.27;21.80;;;;;;;;;;5020323;28;20045;-78
2023/02/12 09:50:01;;;;;;;148.90;19.05;;;;;;;;;;5015068;28;20520;-79
2023/02/12 09:52:28;;;;;;;125.40;19.23;;;;;;;;;;5033007;28;20049;-78
2023/02/12 09:54:55;;;;;;;99.75;19.75;;;;;;;;;;5014669;28;20041;-78
2023/02/12 09:57:28;;;;;;;123.95;20.45;;;;;;;;;;5014080;28;20084;-79
2023/02/12 10:00:00;;;;;;;162.05;19.98;;;;;;;;;;5032569;28;20068;-79
2023/02/12 10:02:27;;;;;;;139.90;19.10;;;;;;;;;;5034784;28;20057;-79
2023/02/12 10:04:54;;;;;;;170.57;20.52;;;;;;;;;;5015517;28;20152;-78
2023/02/12 10:07:42;;;;;;;76.93;18.75;;;;;;;;;;5031803;28;20108;-78
2023/02/12 10:10:14;;;;;;;134.27;19.05;;;;;;;;;;5032802;28;20056;-79
2023/02/12 10:12:49;;;;;;;74.05;18.55;;;;;;;;;;5032154;28;20053;-79
2023/02/12 10:15:16;;;;;;;56.90;17.50;;;;;;;;;;5021907;28;20052;-79
2023/02/12 10:17:42;;;;;;;47.70;16.17;;;;;;;;;;5031318;28;20374;-77
2023/02/12 10:20:08;;;;;;;42.13;16.73;;;;;;;;;;5033319;28;20049;-78
2023/02/12 10:22:54;;;;;;;42.63;15.93;;;;;;;;;;5032822;28;20219;-78
2023/02/12 10:25:48;;;;;;;44.55;15.48;;;;;;;;;;5033604;28;20159;-78
2023/02/12 10:28:25;;;;;;;45.85;15.93;;;;;;;;;;5031780;28;20109;-79
2023/02/12 10:30:57;;;;;;;44.33;16.92;;;;;;;;;;5033947;28;20493;-78
2023/02/12 10:33:26;;;;;;;50.17;16.70;;;;;;;;;;5033588;28;20053;-78
2023/02/12 10:36:12;;;;;;;36.33;14.18;;;;;;;;;;5033266;28;20046;-78
2023/02/12 10:38:41;;;;;;;39.65;15.23;;;;;;;;;;5029958;28;20128;-79
2023/02/12 10:41:13;;;;;;;34.53;13.52;;;;;;;;;;5029824;28;20041;-78
2023/02/12 10:43:40;;;;;;;34.33;12.77;;;;;;;;;;5030932;28;20091;-78
2023/02/12 10:46:12;;;;;;;34.80;13.77;;;;;;;;;;5029328;28;20045;-78
2023/02/12 10:48:40;;;;;;;31.45;12.50;;;;;;;;;;5028514;28;20545;-78
2023/02/12 10:51:06;;;;;;;30.45;11.52;;;;;;;;;;5030797;28;20105;-78
2023/02/12 10:53:38;;;;;;;33.53;12.77;;;;;;;;;;5027677;28;20466;-78
2023/02/12 10:56:04;;;;;;;30.08;12.05;;;;;;;;;;5029297;28;20060;-78
2023/02/12 10:58:30;;;;;;;29.95;11.82;;;;;;;;;;5027910;28;20057;-79
2023/02/12 11:00:58;;;;;;;26.75;11.27;;;;;;;;;;5032443;28;20385;-78
2023/02/12 11:03:29;;;;;;;26.75;11.77;;;;;;;;;;5029017;28;20049;-78
2023/02/12 11:05:55;;;;;;;23.85;10.10;;;;;;;;;;5031169;28;20144;-78
2023/02/12 11:08:28;;;;;;;25.73;9.93;;;;;;;;;;5028304;28;20107;-78
2023/02/12 11:10:54;;;;;;;24.50;10.45;;;;;;;;;;5030448;28;20049;-78
2023/02/12 11:13:22;;;;;;;26.17;10.57;;;;;;;;;;5029740;28;20152;-79
2023/02/12 11:15:49;;;;;;;25.50;10.70;;;;;;;;;;5030494;28;20144;-78
2023/02/12 11:18:26;;;;;;;28.10;10.48;;;;;;;;;;5028238;28;20065;-78
2023/02/12 11:21:02;;;;;;;27.30;10.65;;;;;;;;;;5030793;28;20152;-78
2023/02/12 11:23:33;;;;;;;26.67;11.32;;;;;;;;;;5029930;28;20045;-79
2023/02/12 11:26:21;;;;;;;27.48;11.70;;;;;;;;;;5030698;28;20068;-79
2023/02/12 11:29:01;;;;;;;30.73;12.00;;;;;;;;;;5029015;28;20141;-78
2023/02/12 11:31:27;;;;;;;29.77;11.82;;;;;;;;;;5027143;28;20057;-78
2023/02/12 11:34:03;;;;;;;32.75;12.30;;;;;;;;;;5026864;28;20052;-80
2023/02/12 11:36:31;;;;;;;34.63;13.15;;;;;;;;;;5027112;28;20061;-77
2023/02/12 11:39:01;;;;;;;38.33;13.88;;;;;;;;;;5026799;28;20045;-78
2023/02/12 11:41:35;;;;;;;36.80;14.23;;;;;;;;;;5033775;28;20063;-78
2023/02/12 11:44:15;;;;;;;41.58;14.75;;;;;;;;;;5036009;28;20161;-78
2023/02/12 11:46:46;;;;;;;39.53;15.45;;;;;;;;;;5035293;28;20053;-79
2023/02/12 11:49:20;;;;;;;49.40;15.60;;;;;;;;;;5035921;28;20050;-78
2023/02/12 11:51:47;;;;;;;47.13;16.23;;;;;;;;;;5038480;28;20056;-79
2023/02/12 11:54:17;;;;;;;60.97;16.83;;;;;;;;;;5037194;28;20042;-78
2023/02/12 11:56:45;;;;;;;43.65;16.35;;;;;;;;;;5038362;28;20079;-78
2023/02/12 11:59:30;;;;;;;48.38;16.63;;;;;;;;;;5035115;28;20055;-79
2023/02/12 12:02:00;;;;;;;63.85;17.77;;;;;;;;;;5039029;28;20354;-78
2023/02/12 12:04:28;;;;;;;66.35;17.02;;;;;;;;;;5037087;28;20088;-79
2023/02/12 12:06:58;;;;;;;56.60;16.48;;;;;;;;;;5033504;28;20067;-78
2023/02/12 12:09:28;;;;;;;54.15;18.23;;;;;;;;;;5034907;28;20054;-79
2023/02/12 12:12:06;;;;;;;78.07;17.85;;;;;;;;;;5035126;28;20057;-79
2023/02/12 12:19:51;;;;;;;63.03;19.20;;;;;;;;;;5025388;28;20096;-78
2023/02/12 12:20:16;;;;;;;65.18;19.02;;;;;;;;;;5033861;28;20084;-78
2023/02/12 12:22:45;;;;;;;74.10;18.48;;;;;;;;;;5033740;28;20143;-78
2023/02/12 12:25:17;;;;;;;70.97;18.38;;;;;;;;;;5033466;28;20050;-78
2023/02/12 12:28:01;;;;;;;82.53;18.58;;;;;;;;;;5033003;28;20073;-77
2023/02/12 12:30:36;;;;;;;78.65;20.85;;;;;;;;;;5033952;28;20053;-78
2023/02/12 12:33:05;;;;;;;91.65;18.30;;;;;;;;;;5033111;28;20231;-78
2023/02/12 12:35:40;;;;;;;107.88;18.10;;;;;;;;;;5034543;28;20505;-78
2023/02/12 12:38:13;;;;;;;98.72;18.65;;;;;;;;;;5033100;28;20418;-78
2023/02/12 12:40:41;;;;;;;104.63;19.45;;;;;;;;;;5034521;28;20494;-78
2023/02/12 12:43:18;;;;;;;86.38;17.63;;;;;;;;;;5034032;28;20410;-78
2023/02/12 12:46:02;;;;;;;90.00;18.33;;;;;;;;;;5033623;28;20476;-78
2023/02/12 12:48:48;;;;;;;72.55;18.02;;;;;;;;;;5031286;28;20148;-78
2023/02/12 12:51:14;;;;;;;86.10;19.93;;;;;;;;;;5033754;28;20291;-78
2023/02/12 12:53:43;;;;;;;105.15;20.23;;;;;;;;;;5032379;28;20787;-78
2023/02/12 12:56:16;;;;;;;84.43;19.63;;;;;;;;;;5034572;28;20489;-77
2023/02/12 12:58:51;;;;;;;161.23;19.73;;;;;;;;;;5034050;28;20428;-78
2023/02/12 13:01:20;;;;;;;63.85;17.48;;;;;;;;;;5031271;28;20046;-78
2023/02/12 13:03:47;;;;;;;111.38;19.42;;;;;;;;;;5030422;28;20046;-78
2023/02/12 13:06:17;;;;;;;152.55;18.77;;;;;;;;;;5030510;28;20086;-78
2023/02/12 13:08:55;;;;;;;156.88;20.60;;;;;;;;;;5030266;28;20440;-78
2023/02/12 13:11:42;;;;;;;137.35;20.58;;;;;;;;;;5031791;28;20722;-78
2023/02/12 13:14:18;;;;;;;82.68;19.50;;;;;;;;;;5030539;28;20057;-78
2023/02/12 13:16:55;;;;;;;172.93;21.35;;;;;;;;;;5031284;28;20056;-78
2023/02/12 13:19:37;;;;;;;119.43;21.58;;;;;;;;;;5031125;28;20064;-78
2023/02/12 13:22:03;;;;;;;157.10;20.83;;;;;;;;;;5031032;28;20053;-78
2023/02/12 13:24:41;;;;;;;129.80;22.10;;;;;;;;;;5014422;28;20493;-78
2023/02/12 13:27:14;;;;;;;104.70;24.73;;;;;;;;;;5032684;28;20224;-78
2023/02/12 13:29:43;;;;;;;84.93;21.55;;;;;;;;;;5017652;28;20053;-78
2023/02/12 13:32:15;;;;;;;69.93;21.33;;;;;;;;;;5034714;28;20059;-78
2023/02/12 13:34:42;;;;;;;76.47;23.63;;;;;;;;;;5034060;28;20051;-78
2023/02/12 13:37:14;;;;;;;71.18;23.83;;;;;;;;;;5033359;28;20056;-78
2023/02/12 13:39:42;;;;;;;60.33;22.05;;;;;;;;;;5016723;28;20076;-78
2023/02/12 13:42:09;;;;;;;65.38;22.58;;;;;;;;;;5032370;28;20045;-78
2023/02/12 13:44:58;;;;;;;71.03;23.73;;;;;;;;;;5014236;28;20231;-78
2023/02/12 13:47:37;;;;;;;70.18;22.58;;;;;;;;;;5031481;28;20045;-79
2023/02/12 13:50:09;;;;;;;56.10;22.02;;;;;;;;;;5031128;28;20060;-79
2023/02/12 13:52:48;;;;;;;57.67;21.90;;;;;;;;;;5016047;28;20124;-78
2023/02/12 13:55:18;;;;;;;50.90;20.27;;;;;;;;;;5033427;28;20421;-78
2023/02/12 13:57:44;;;;;;;46.42;20.15;;;;;;;;;;5032059;28;20057;-78
2023/02/12 14:00:34;;;;;;;51.83;19.58;;;;;;;;;;5033281;28;20054;-78
2023/02/12 14:03:06;;;;;;;51.78;20.08;;;;;;;;;;4994770;28;20528;-78
2023/02/12 14:05:34;;;;;;;50.60;20.25;;;;;;;;;;5033802;28;20056;-79
2023/02/12 14:08:04;;;;;;;51.15;20.25;;;;;;;;;;5031711;28;20061;-79
2023/02/12 14:10:35;;;;;;;47.45;20.42;;;;;;;;;;5014322;28;20144;-78
2023/02/12 14:13:13;;;;;;;49.97;19.67;;;;;;;;;;5015091;28;20042;-79
2023/02/12 14:15:43;;;;;;;43.60;18.52;;;;;;;;;;5027325;28;20053;-78
2023/02/12 14:18:24;;;;;;;45.58;17.30;;;;;;;;;;5030428;28;20096;-78
2023/02/12 14:21:09;;;;;;;41.95;16.88;;;;;;;;;;5030913;28;20605;-78
2023/02/12 14:23:36;;;;;;;43.17;17.25;;;;;;;;;;5031401;28;20056;-79
2023/02/12 14:26:09;;;;;;;40.90;16.85;;;;;;;;;;5030637;28;20073;-78
2023/02/12 14:28:35;;;;;;;37.33;15.95;;;;;;;;;;5030432;28;20057;-78
2023/02/12 14:31:16;;;;;;;44.03;16.40;;;;;;;;;;5030773;28;20072;-78
2023/02/12 14:33:44;;;;;;;39.60;15.57;;;;;;;;;;5030293;28;20128;-79